Time;durP1;ratioP1;P1;durP2;ratioP2;P2;SDS_P1;SDS_P2;PMS_P1;PMS_P2;Temp;Humidity;BMP_temperature;BMP_pressure;BME280_temperature;BME280_humidity;BME280_pressure;Samples;Min_cycle;Max_cycle;Signal;HPM_P1;HPM_P2
2024/01/15 00:02:26;;;;;;;35.37;18.73;;;1.70;99.90;;;;;;5060292;28;20535;-78
2024/01/15 00:04:53;;;;;;;39.33;20.97;;;1.70;99.90;;;;;;5062327;28;20562;-79
2024/01/15 00:07:19;;;;;;;39.97;19.20;;;1.70;99.90;;;;;;5060779;28;20538;-79
2024/01/15 00:09:46;;;;;;;33.37;18.47;;;1.80;99.90;;;;;;5061064;28;20792;-79
2024/01/15 00:12:13;;;;;;;40.60;20.50;;;1.80;99.90;;;;;;5060228;28;20522;-78
2024/01/15 00:14:40;;;;;;;38.90;19.90;;;1.80;99.90;;;;;;5060930;28;20467;-79
2024/01/15 00:17:08;;;;;;;43.10;20.70;;;1.90;99.90;;;;;;5059034;28;20455;-80
2024/01/15 00:19:35;;;;;;;38.30;20.30;;;1.80;99.90;;;;;;5059524;28;20904;-79
2024/01/15 00:22:02;;;;;;;39.17;21.00;;;1.80;99.90;;;;;;5058744;28;20457;-79
2024/01/15 00:24:28;;;;;;;36.60;19.37;;;1.90;99.90;;;;;;5058195;28;20531;-78
2024/01/15 00:26:55;;;;;;;37.20;21.23;;;1.80;99.90;;;;;;5060486;28;20414;-79
2024/01/15 00:29:22;;;;;;;37.50;18.50;;;1.80;99.90;;;;;;5059969;28;20943;-79
2024/01/15 00:31:49;;;;;;;34.23;18.00;;;1.80;99.90;;;;;;5064363;28;20430;-80
2024/01/15 00:34:17;;;;;;;40.27;19.87;;;1.90;99.90;;;;;;5060790;28;20451;-78
2024/01/15 00:36:44;;;;;;;41.00;21.70;;;1.80;99.90;;;;;;5061954;28;20826;-78
2024/01/15 00:39:11;;;;;;;36.20;19.30;;;1.70;99.90;;;;;;5060913;28;20466;-78
2024/01/15 00:41:38;;;;;;;41.77;22.17;;;1.80;99.90;;;;;;5059085;28;20533;-78
2024/01/15 00:44:05;;;;;;;31.80;18.40;;;1.80;99.90;;;;;;5059646;28;20467;-79
2024/01/15 00:46:31;;;;;;;36.97;16.97;;;1.80;99.90;;;;;;5059590;28;20543;-79
2024/01/15 00:48:58;;;;;;;33.57;18.57;;;1.90;99.90;;;;;;5058874;28;20792;-79
2024/01/15 00:51:26;;;;;;;38.47;19.00;;;1.90;99.90;;;;;;5057941;28;20802;-80
2024/01/15 00:53:53;;;;;;;29.30;18.00;;;1.90;99.90;;;;;;5057980;28;20497;-78
2024/01/15 00:56:20;;;;;;;32.60;17.83;;;1.90;99.90;;;;;;5059957;28;20499;-79
2024/01/15 00:58:47;;;;;;;33.87;19.80;;;1.90;99.90;;;;;;5055365;28;20440;-79
2024/01/15 01:01:13;;;;;;;36.83;18.80;;;1.90;99.90;;;;;;5055078;28;20452;-79
2024/01/15 01:03:40;;;;;;;30.83;18.70;;;1.90;99.90;;;;;;5056191;28;20500;-79
2024/01/15 01:06:07;;;;;;;41.90;20.57;;;1.90;99.90;;;;;;5055439;28;20460;-79
2024/01/15 01:08:35;;;;;;;38.13;20.20;;;2.00;99.90;;;;;;5056104;28;20446;-78
2024/01/15 01:11:02;;;;;;;39.37;19.77;;;1.90;99.90;;;;;;5051003;28;20593;-79
2024/01/15 01:13:29;;;;;;;29.37;18.20;;;1.90;99.90;;;;;;5052013;28;20488;-80
2024/01/15 01:15:55;;;;;;;30.70;17.93;;;1.90;99.90;;;;;;5055272;28;20456;-79
2024/01/15 01:18:22;;;;;;;36.40;18.33;;;1.90;99.90;;;;;;5054952;28;20448;-79
2024/01/15 01:20:49;;;;;;;31.67;17.00;;;1.90;99.90;;;;;;5055778;28;20448;-79
2024/01/15 01:23:16;;;;;;;30.33;16.37;;;1.90;99.90;;;;;;5057203;28;20856;-79
2024/01/15 01:25:46;;;;;;;37.73;17.97;;;1.90;99.90;;;;;;5055252;28;20466;-79
2024/01/15 01:28:12;;;;;;;32.07;18.50;;;1.90;99.90;;;;;;5056702;28;20536;-80
2024/01/15 01:30:39;;;;;;;28.10;17.97;;;1.90;99.90;;;;;;5054571;28;20453;-77
2024/01/15 01:33:06;;;;;;;25.90;16.00;;;2.00;99.90;;;;;;5056082;28;20503;-79
2024/01/15 01:35:33;;;;;;;37.57;17.70;;;1.90;99.90;;;;;;5059979;28;20460;-79
2024/01/15 01:38:00;;;;;;;23.47;14.87;;;2.00;99.90;;;;;;5055728;28;20464;-78
2024/01/15 01:40:26;;;;;;;26.40;15.13;;;2.00;99.90;;;;;;5055462;28;20454;-79
2024/01/15 01:42:54;;;;;;;27.33;15.63;;;2.00;99.90;;;;;;5055756;28;20471;-79
2024/01/15 01:45:21;;;;;;;29.27;16.07;;;1.90;99.90;;;;;;5055797;28;20456;-79
2024/01/15 01:47:48;;;;;;;34.73;15.90;;;2.00;99.90;;;;;;5055881;28;20483;-78
2024/01/15 01:50:16;;;;;;;25.33;14.63;;;2.00;99.90;;;;;;5055678;28;20994;-79
2024/01/15 01:52:43;;;;;;;25.03;16.17;;;1.90;99.90;;;;;;5061768;28;20492;-77
2024/01/15 01:55:11;;;;;;;30.97;15.97;;;2.00;99.90;;;;;;5065940;28;20491;-77
2024/01/15 01:57:38;;;;;;;26.87;15.83;;;2.00;99.90;;;;;;5073810;28;20529;-77
2024/01/15 02:00:09;;;;;;;26.87;15.53;;;2.00;99.90;;;;;;5056705;28;20462;-79
2024/01/15 02:02:36;;;;;;;21.47;15.40;;;2.00;99.90;;;;;;5060016;28;20449;-78
2024/01/15 02:05:05;;;;;;;28.37;14.90;;;2.00;99.90;;;;;;5056441;28;20470;-78
2024/01/15 02:07:33;;;;;;;28.23;15.67;;;2.00;99.90;;;;;;5056404;28;20487;-79
2024/01/15 02:09:59;;;;;;;26.13;15.33;;;2.00;99.90;;;;;;5055366;28;20478;-80
2024/01/15 02:12:26;;;;;;;26.77;15.80;;;2.00;99.90;;;;;;5055486;28;20488;-80
2024/01/15 02:14:55;;;;;;;25.80;15.30;;;2.00;99.90;;;;;;5056311;28;20497;-79
2024/01/15 02:17:24;;;;;;;23.10;15.60;;;2.00;99.90;;;;;;5056855;28;20466;-79
2024/01/15 02:19:51;;;;;;;31.47;16.57;;;1.90;99.90;;;;;;5062777;28;20462;-79
2024/01/15 02:22:17;;;;;;;25.33;15.10;;;1.90;99.90;;;;;;5054492;28;20470;-78
2024/01/15 02:24:46;;;;;;;27.30;15.13;;;1.90;99.90;;;;;;5056087;28;20482;-79
2024/01/15 02:27:12;;;;;;;27.97;16.03;;;1.80;99.90;;;;;;5055251;28;20570;-79
2024/01/15 02:29:40;;;;;;;22.70;13.93;;;1.80;99.90;;;;;;5056778;28;20463;-79
2024/01/15 02:32:07;;;;;;;22.77;13.83;;;1.90;99.90;;;;;;5059093;28;20466;-79
2024/01/15 02:34:34;;;;;;;27.33;15.17;;;1.90;99.90;;;;;;5058623;28;20495;-78
2024/01/15 02:37:01;;;;;;;24.70;14.87;;;1.90;99.90;;;;;;5059085;28;20451;-79
2024/01/15 02:39:28;;;;;;;20.53;13.73;;;1.90;99.90;;;;;;5058463;28;20455;-78
2024/01/15 02:41:57;;;;;;;23.70;15.07;;;1.90;99.90;;;;;;5058018;28;20474;-78
2024/01/15 02:44:24;;;;;;;22.10;13.60;;;1.90;99.90;;;;;;5058847;28;20839;-78
2024/01/15 02:46:51;;;;;;;24.80;14.60;;;2.00;99.90;;;;;;5059221;28;20452;-78
2024/01/15 02:49:17;;;;;;;20.90;13.20;;;2.00;99.90;;;;;;5064991;28;20454;-79
2024/01/15 02:51:44;;;;;;;25.50;15.07;;;2.00;99.90;;;;;;5062228;28;20448;-77
2024/01/15 02:54:11;;;;;;;27.10;15.73;;;2.00;99.90;;;;;;5058888;28;20491;-78
2024/01/15 02:56:38;;;;;;;26.07;14.43;;;2.00;99.90;;;;;;5060270;28;20543;-78
2024/01/15 02:59:06;;;;;;;21.93;12.53;;;1.90;99.90;;;;;;5060519;28;20444;-79
2024/01/15 03:01:33;;;;;;;21.93;12.23;;;1.90;99.90;;;;;;5060311;28;20983;-79
2024/01/15 03:04:00;;;;;;;24.70;12.50;;;2.00;99.90;;;;;;5058915;28;20474;-78
2024/01/15 03:06:26;;;;;;;21.80;13.53;;;2.00;99.90;;;;;;5059367;28;20458;-77
2024/01/15 03:08:53;;;;;;;20.50;14.10;;;2.00;99.90;;;;;;5057823;28;20467;-78
2024/01/15 03:11:20;;;;;;;17.60;11.23;;;2.10;99.90;;;;;;5057489;28;21056;-79
2024/01/15 03:13:47;;;;;;;25.70;14.03;;;2.10;99.90;;;;;;5057992;28;20588;-78
2024/01/15 03:16:15;;;;;;;21.60;13.03;;;2.00;99.90;;;;;;5058617;28;20461;-79
2024/01/15 03:18:41;;;;;;;27.60;11.80;;;2.00;99.90;;;;;;5057779;28;20465;-79
2024/01/15 03:21:08;;;;;;;23.83;10.87;;;2.00;99.90;;;;;;5058159;28;20452;-78
2024/01/15 03:23:35;;;;;;;22.13;12.40;;;2.00;99.90;;;;;;5058440;28;20506;-78
2024/01/15 03:26:02;;;;;;;22.50;11.63;;;2.10;99.90;;;;;;5057554;28;20449;-79
2024/01/15 03:28:30;;;;;;;16.50;10.67;;;2.10;99.90;;;;;;5056182;28;20459;-78
2024/01/15 03:30:57;;;;;;;23.53;12.07;;;2.00;99.90;;;;;;5064541;28;20448;-78
2024/01/15 03:33:25;;;;;;;19.20;10.97;;;2.00;99.90;;;;;;5056750;28;20504;-78
2024/01/15 03:35:51;;;;;;;16.70;10.57;;;2.10;99.90;;;;;;5057555;28;20433;-78
2024/01/15 03:38:18;;;;;;;18.50;10.43;;;2.10;99.90;;;;;;5056664;28;20462;-78
2024/01/15 03:40:45;;;;;;;23.30;10.60;;;2.10;99.90;;;;;;5055100;28;20463;-77
2024/01/15 03:43:12;;;;;;;16.87;9.97;;;2.10;99.90;;;;;;5056599;28;20472;-78
2024/01/15 03:45:38;;;;;;;15.53;9.47;;;2.20;99.90;;;;;;5056805;28;20458;-78
2024/01/15 03:48:06;;;;;;;15.90;9.53;;;2.20;99.90;;;;;;5057007;28;20457;-79
2024/01/15 03:50:34;;;;;;;17.33;9.90;;;2.20;99.90;;;;;;5056558;28;20450;-78
2024/01/15 03:53:01;;;;;;;20.23;9.73;;;2.20;99.90;;;;;;5056524;28;20863;-78
2024/01/15 03:55:28;;;;;;;14.70;8.77;;;2.20;99.90;;;;;;5057387;28;20547;-78
2024/01/15 03:57:55;;;;;;;19.43;11.67;;;2.30;99.90;;;;;;5056969;28;20453;-78
2024/01/15 04:00:22;;;;;;;13.57;9.97;;;2.30;99.90;;;;;;5057044;28;20449;-79
2024/01/15 04:02:48;;;;;;;19.63;9.60;;;2.30;99.90;;;;;;5059927;28;20539;-78
2024/01/15 04:05:15;;;;;;;19.00;9.77;;;2.30;99.90;;;;;;5063977;28;20483;-79
2024/01/15 04:07:43;;;;;;;18.63;8.97;;;2.20;99.90;;;;;;5066443;28;20465;-81
2024/01/15 04:10:10;;;;;;;12.43;8.03;;;2.20;99.90;;;;;;5056938;28;20975;-80
2024/01/15 04:12:37;;;;;;;14.90;8.03;;;2.20;99.90;;;;;;5058834;28;20479;-79
2024/01/15 04:15:05;;;;;;;13.80;8.50;;;2.30;99.90;;;;;;5058790;28;20496;-79
2024/01/15 04:17:31;;;;;;;17.47;9.47;;;2.20;99.90;;;;;;5058349;28;20455;-80
2024/01/15 04:20:01;;;;;;;14.83;8.90;;;2.10;99.90;;;;;;5057014;28;20459;-79
2024/01/15 04:22:28;;;;;;;9.90;6.90;;;2.20;99.90;;;;;;5057233;28;20972;-78
2024/01/15 04:24:56;;;;;;;12.90;8.70;;;2.10;99.90;;;;;;5057647;28;20504;-79
2024/01/15 04:27:23;;;;;;;20.23;8.83;;;2.00;99.90;;;;;;5058027;28;20464;-78
2024/01/15 04:29:50;;;;;;;13.10;7.90;;;2.00;99.90;;;;;;5057134;28;20482;-79
2024/01/15 04:32:16;;;;;;;16.37;7.70;;;2.10;99.90;;;;;;5063047;28;20461;-80
2024/01/15 04:34:43;;;;;;;12.27;8.80;;;2.10;99.90;;;;;;5060409;28;20488;-79
2024/01/15 04:37:10;;;;;;;15.97;8.53;;;2.10;99.90;;;;;;5057512;28;20467;-77
2024/01/15 04:39:37;;;;;;;13.63;8.80;;;2.10;99.90;;;;;;5056867;28;20470;-78
2024/01/15 04:42:05;;;;;;;22.13;9.60;;;2.10;99.90;;;;;;5057658;28;20457;-79
2024/01/15 04:44:32;;;;;;;20.20;9.40;;;2.20;99.90;;;;;;5057680;28;20467;-79
2024/01/15 04:46:59;;;;;;;16.10;10.27;;;2.10;99.90;;;;;;5056673;28;20968;-79
2024/01/15 04:49:27;;;;;;;24.07;12.70;;;2.10;99.90;;;;;;5057077;28;20471;-78
2024/01/15 04:51:53;;;;;;;16.10;9.43;;;2.10;99.90;;;;;;5055736;28;20455;-80
2024/01/15 04:54:20;;;;;;;19.10;10.87;;;2.20;99.90;;;;;;5056694;28;20499;-79
2024/01/15 04:56:47;;;;;;;16.93;9.67;;;2.20;99.90;;;;;;5056574;28;20462;-79
2024/01/15 04:59:15;;;;;;;16.07;9.40;;;2.20;99.90;;;;;;5056320;28;20457;-79
2024/01/15 05:01:43;;;;;;;18.43;10.77;;;2.20;99.90;;;;;;5055469;28;20463;-78
2024/01/15 05:04:10;;;;;;;19.73;11.30;;;2.30;99.90;;;;;;5056941;28;20464;-79
2024/01/15 05:06:35;;;;;;;14.23;9.03;;;2.20;99.90;;;;;;5056593;28;20534;-79
2024/01/15 05:09:04;;;;;;;19.47;9.77;;;2.30;99.90;;;;;;5055439;28;20543;-79
2024/01/15 05:11:30;;;;;;;17.80;9.37;;;2.30;99.90;;;;;;5055965;28;20259;-80
2024/01/15 05:13:57;;;;;;;19.90;9.90;;;2.20;99.90;;;;;;5054995;28;20501;-79
2024/01/15 05:16:25;;;;;;;20.23;10.50;;;2.30;99.90;;;;;;5056520;28;20461;-79
2024/01/15 05:18:52;;;;;;;17.27;10.77;;;2.30;99.90;;;;;;5056348;28;20831;-79
2024/01/15 05:21:19;;;;;;;17.40;12.47;;;2.30;99.90;;;;;;5063203;28;20454;-79
2024/01/15 05:23:45;;;;;;;20.60;11.40;;;2.30;99.90;;;;;;5070466;28;20916;-77
2024/01/15 05:26:12;;;;;;;19.67;10.17;;;2.30;99.90;;;;;;5063491;28;20550;-78
2024/01/15 05:28:39;;;;;;;13.63;9.57;;;2.30;99.90;;;;;;5056824;28;20548;-78
2024/01/15 05:31:06;;;;;;;19.10;11.20;;;2.20;99.90;;;;;;5054744;28;20467;-80
2024/01/15 05:33:34;;;;;;;14.13;9.60;;;2.20;99.90;;;;;;5055366;28;20488;-79
2024/01/15 05:36:01;;;;;;;13.03;9.17;;;2.20;99.90;;;;;;5055852;28;20986;-78
2024/01/15 05:38:28;;;;;;;16.10;9.00;;;2.20;99.90;;;;;;5055673;28;20460;-78
2024/01/15 05:40:55;;;;;;;14.30;8.83;;;2.30;99.90;;;;;;5055063;28;20470;-78
2024/01/15 05:43:22;;;;;;;19.13;9.67;;;2.30;99.90;;;;;;5055322;28;20999;-78
2024/01/15 05:45:49;;;;;;;14.00;9.87;;;2.30;99.90;;;;;;5055669;28;20980;-78
2024/01/15 05:48:15;;;;;;;13.57;8.70;;;2.30;99.90;;;;;;5055203;28;21149;-80
2024/01/15 05:50:44;;;;;;;13.30;9.33;;;2.40;99.90;;;;;;5055050;28;20941;-79
2024/01/15 05:53:10;;;;;;;19.50;9.60;;;2.30;99.90;;;;;;5054324;28;20480;-78
2024/01/15 05:55:38;;;;;;;17.27;10.70;;;2.40;99.90;;;;;;5052014;28;20480;-78
2024/01/15 05:58:05;;;;;;;17.60;10.77;;;2.40;99.90;;;;;;5055751;28;20449;-78
2024/01/15 06:00:32;;;;;;;14.03;9.97;;;2.40;99.90;;;;;;5055661;28;20536;-78
2024/01/15 06:02:59;;;;;;;14.20;9.13;;;2.40;99.90;;;;;;5053545;28;20554;-78
2024/01/15 06:05:26;;;;;;;19.13;8.93;;;2.40;99.90;;;;;;5056322;28;20529;-78
2024/01/15 06:07:54;;;;;;;17.87;9.90;;;2.30;99.90;;;;;;5059439;28;20455;-79
2024/01/15 06:10:21;;;;;;;12.27;9.70;;;2.30;99.90;;;;;;5058999;28;20505;-79
2024/01/15 06:12:48;;;;;;;14.27;8.77;;;2.30;99.90;;;;;;5056455;28;20948;-79
2024/01/15 06:15:15;;;;;;;14.63;9.10;;;2.40;99.90;;;;;;5057551;28;20491;-78
2024/01/15 06:17:41;;;;;;;17.80;10.07;;;2.40;99.90;;;;;;5055538;28;20568;-78
2024/01/15 06:20:10;;;;;;;16.67;10.10;;;2.40;99.90;;;;;;5057777;28;20472;-78
2024/01/15 06:22:39;;;;;;;15.07;10.83;;;2.40;99.90;;;;;;5058508;28;20464;-78
2024/01/15 06:25:08;;;;;;;18.23;10.20;;;2.30;99.90;;;;;;5062889;28;20454;-79
2024/01/15 06:27:35;;;;;;;18.43;11.00;;;2.40;99.90;;;;;;5061866;28;20450;-78
2024/01/15 06:30:03;;;;;;;18.40;10.93;;;2.40;99.90;;;;;;5058319;28;20449;-78
2024/01/15 06:32:30;;;;;;;14.70;10.53;;;2.40;99.90;;;;;;5059506;28;20541;-79
2024/01/15 06:34:57;;;;;;;14.37;10.37;;;2.40;99.90;;;;;;5058875;28;20578;-79
2024/01/15 06:37:24;;;;;;;14.37;9.53;;;2.40;99.90;;;;;;5053987;28;20831;-78
2024/01/15 06:39:50;;;;;;;16.20;9.13;;;2.40;99.90;;;;;;5050860;28;20818;-78
2024/01/15 06:42:21;;;;;;;19.33;10.20;;;2.40;99.90;;;;;;5056232;28;20459;-79
2024/01/15 06:44:48;;;;;;;14.83;8.47;;;2.40;99.90;;;;;;5052491;28;20556;-78
2024/01/15 06:47:17;;;;;;;12.67;7.60;;;2.50;99.90;;;;;;5056910;28;20448;-79
2024/01/15 06:49:45;;;;;;;18.53;9.33;;;2.60;99.90;;;;;;5048448;28;21034;-78
2024/01/15 06:52:12;;;;;;;15.07;9.20;;;2.50;99.90;;;;;;5052859;28;20456;-79
2024/01/15 06:54:39;;;;;;;11.73;8.97;;;2.50;99.90;;;;;;5048622;28;21053;-78
2024/01/15 06:57:07;;;;;;;12.07;8.80;;;2.60;99.90;;;;;;5055557;28;20452;-79
2024/01/15 06:59:35;;;;;;;15.43;9.00;;;2.50;99.90;;;;;;5050850;28;20457;-78
2024/01/15 07:02:02;;;;;;;14.03;8.57;;;2.50;99.90;;;;;;5051497;28;20455;-79
2024/01/15 07:04:29;;;;;;;15.10;9.40;;;2.60;99.90;;;;;;5049699;28;20571;-78
2024/01/15 07:06:56;;;;;;;12.20;8.90;;;2.50;99.90;;;;;;5052210;28;20449;-80
2024/01/15 07:09:23;;;;;;;16.20;8.60;;;2.50;99.90;;;;;;5048958;28;20525;-80
2024/01/15 07:11:49;;;;;;;11.70;7.60;;;2.50;99.90;;;;;;5051866;28;20477;-80
2024/01/15 07:14:16;;;;;;;13.20;9.10;;;2.50;99.90;;;;;;5049537;28;20487;-80
2024/01/15 07:16:44;;;;;;;12.77;7.23;;;2.40;99.90;;;;;;5053022;28;20479;-78
2024/01/15 07:19:11;;;;;;;11.47;7.80;;;2.40;99.90;;;;;;5050369;28;20444;-79
2024/01/15 07:21:39;;;;;;;12.57;7.40;;;2.50;99.90;;;;;;5053939;28;20474;-80
2024/01/15 07:24:06;;;;;;;12.73;7.80;;;2.60;99.90;;;;;;5049926;28;20464;-79
2024/01/15 07:26:33;;;;;;;13.47;8.47;;;2.50;99.90;;;;;;5052933;28;21016;-80
2024/01/15 07:29:00;;;;;;;12.13;7.10;;;2.50;99.90;;;;;;5058595;28;20829;-78
2024/01/15 07:31:27;;;;;;;10.03;6.63;;;2.60;99.90;;;;;;5058480;28;20455;-80
2024/01/15 07:33:55;;;;;;;11.10;7.23;;;2.60;99.90;;;;;;5055238;28;20482;-79
2024/01/15 07:36:22;;;;;;;9.90;6.83;;;2.60;99.90;;;;;;5056268;28;20460;-78
2024/01/15 07:38:49;;;;;;;11.23;6.43;;;2.50;99.90;;;;;;5056811;28;20457;-79
2024/01/15 07:41:16;;;;;;;8.60;6.30;;;2.50;99.90;;;;;;5058008;28;20459;-79
2024/01/15 07:43:42;;;;;;;9.33;6.20;;;2.50;99.90;;;;;;5061571;28;20905;-79
2024/01/15 07:46:09;;;;;;;11.20;6.73;;;2.50;99.90;;;;;;5057645;28;20444;-78
2024/01/15 07:48:36;;;;;;;15.23;4.80;;;2.50;99.90;;;;;;5059132;28;20982;-79
2024/01/15 07:51:05;;;;;;;9.33;5.50;;;2.40;99.90;;;;;;5054679;28;20430;-79
2024/01/15 07:53:31;;;;;;;10.23;6.43;;;2.50;99.90;;;;;;5052769;28;20537;-80
2024/01/15 07:55:58;;;;;;;9.43;6.47;;;2.60;99.90;;;;;;5048156;28;20530;-79
2024/01/15 07:58:25;;;;;;;7.90;6.37;;;2.50;99.90;;;;;;5048699;28;20465;-78
2024/01/15 08:00:52;;;;;;;12.33;7.37;;;2.40;99.90;;;;;;5049747;28;20469;-79
2024/01/15 08:03:19;;;;;;;8.23;6.20;;;2.40;99.90;;;;;;5044427;28;21066;-79
2024/01/15 08:05:45;;;;;;;7.50;5.07;;;2.40;99.90;;;;;;5039281;28;20453;-78
2024/01/15 08:08:18;;;;;;;8.53;4.60;;;2.40;99.90;;;;;;5050925;28;21136;-78
2024/01/15 08:10:45;;;;;;;6.00;4.70;;;2.50;99.90;;;;;;5051069;28;20524;-78
2024/01/15 08:13:12;;;;;;;7.73;4.67;;;2.50;99.90;;;;;;5053267;28;20475;-78
2024/01/15 08:15:39;;;;;;;11.97;5.50;;;2.50;99.90;;;;;;5049823;28;20819;-78
2024/01/15 08:18:06;;;;;;;5.80;4.70;;;2.50;99.90;;;;;;5050436;28;20446;-78
2024/01/15 08:20:33;;;;;;;11.57;4.60;;;2.40;99.90;;;;;;5045886;28;20450;-78
2024/01/15 08:23:00;;;;;;;10.10;4.50;;;2.40;99.90;;;;;;5047925;28;20485;-79
2024/01/15 08:25:28;;;;;;;11.30;4.80;;;2.30;99.90;;;;;;5049947;28;20454;-78
2024/01/15 08:27:55;;;;;;;9.60;6.33;;;2.30;99.90;;;;;;5051008;28;20548;-79
2024/01/15 08:30:27;;;;;;;8.03;6.40;;;2.40;99.90;;;;;;5043122;28;20462;-78
2024/01/15 08:32:54;;;;;;;10.90;5.80;;;2.30;99.90;;;;;;5047261;28;20957;-77
2024/01/15 08:35:22;;;;;;;8.70;7.47;;;2.30;99.90;;;;;;5047126;28;20488;-80
2024/01/15 08:37:49;;;;;;;10.57;7.10;;;2.30;99.90;;;;;;5056120;28;20457;-78
2024/01/15 08:40:16;;;;;;;13.77;8.80;;;2.30;99.90;;;;;;5044892;28;20454;-77
2024/01/15 08:42:45;;;;;;;11.60;9.13;;;2.20;99.90;;;;;;5052095;28;20452;-79
2024/01/15 08:45:12;;;;;;;12.60;8.90;;;2.20;99.90;;;;;;5058382;28;20433;-79
2024/01/15 08:47:39;;;;;;;15.57;9.93;;;2.10;99.90;;;;;;5059172;28;21019;-79
2024/01/15 08:50:09;;;;;;;11.40;8.33;;;2.20;99.90;;;;;;5047761;28;20849;-78
2024/01/15 08:52:39;;;;;;;12.93;8.93;;;2.20;99.90;;;;;;5049972;28;20464;-77
2024/01/15 08:55:07;;;;;;;11.17;8.73;;;2.20;99.90;;;;;;5045122;28;20542;-79
2024/01/15 08:57:33;;;;;;;13.40;10.50;;;2.30;99.90;;;;;;5044481;28;20474;-78
2024/01/15 09:00:03;;;;;;;14.10;10.57;;;2.10;99.90;;;;;;5050662;28;20455;-78
2024/01/15 09:02:30;;;;;;;14.27;10.50;;;2.00;99.90;;;;;;5051670;28;20479;-79
2024/01/15 09:04:57;;;;;;;15.33;10.73;;;1.90;99.90;;;;;;5051751;28;20458;-78
2024/01/15 09:07:25;;;;;;;14.23;10.77;;;2.00;99.90;;;;;;5054466;28;20443;-79
2024/01/15 09:09:52;;;;;;;16.47;11.47;;;2.00;99.90;;;;;;5043723;28;20529;-79
2024/01/15 09:12:20;;;;;;;17.23;12.60;;;2.00;99.90;;;;;;5051676;28;20456;-78
2024/01/15 09:14:47;;;;;;;15.97;11.60;;;2.10;99.90;;;;;;5052816;28;20498;-79
2024/01/15 09:17:15;;;;;;;20.43;13.67;;;2.10;99.90;;;;;;5054323;28;20464;-78
2024/01/15 09:19:42;;;;;;;24.13;14.70;;;2.00;99.90;;;;;;5053851;28;20551;-78
2024/01/15 09:22:18;;;;;;;19.30;14.47;;;2.00;99.90;;;;;;5053759;28;20467;-79
2024/01/15 09:24:44;;;;;;;17.67;12.17;;;2.00;99.90;;;;;;5054596;28;20477;-79
2024/01/15 09:27:11;;;;;;;18.67;14.03;;;2.00;99.90;;;;;;5053712;28;20540;-79
2024/01/15 09:29:43;;;;;;;16.03;12.63;;;2.00;99.90;;;;;;5053077;28;20452;-79
2024/01/15 09:32:10;;;;;;;18.40;14.20;;;2.00;99.90;;;;;;5054865;28;20466;-79
2024/01/15 09:34:39;;;;;;;16.80;12.67;;;2.00;99.90;;;;;;5055240;28;20476;-79
2024/01/15 09:37:06;;;;;;;20.60;14.00;;;1.90;99.90;;;;;;5055715;28;20832;-79
2024/01/15 09:39:32;;;;;;;22.13;13.53;;;1.90;99.90;;;;;;5051613;28;20534;-79
2024/01/15 09:42:00;;;;;;;18.60;11.73;;;1.90;99.90;;;;;;5054233;28;20531;-79
2024/01/15 09:44:29;;;;;;;13.47;10.17;;;1.80;99.90;;;;;;5055028;28;21361;-79
2024/01/15 09:46:59;;;;;;;53.80;29.17;;;1.80;99.90;;;;;;5057416;28;20535;-78
2024/01/15 09:49:26;;;;;;;16.83;11.77;;;1.70;99.90;;;;;;5055316;28;20452;-79
2024/01/15 09:51:55;;;;;;;15.27;10.53;;;1.60;99.90;;;;;;5058435;28;20531;-79
2024/01/15 09:54:22;;;;;;;17.40;11.00;;;1.50;99.90;;;;;;5055519;28;20479;-79
2024/01/15 09:56:49;;;;;;;15.33;10.33;;;1.60;99.90;;;;;;5055745;28;20587;-78
2024/01/15 09:59:17;;;;;;;15.40;10.87;;;1.60;99.90;;;;;;5054281;28;20555;-79
2024/01/15 10:01:44;;;;;;;16.83;10.80;;;1.70;99.90;;;;;;5054485;28;20448;-79
2024/01/15 10:04:12;;;;;;;17.37;10.50;;;1.70;99.90;;;;;;5055589;28;20471;-78
2024/01/15 10:06:40;;;;;;;14.83;10.90;;;1.70;99.90;;;;;;5058253;28;20471;-79
2024/01/15 10:09:08;;;;;;;15.97;10.40;;;1.60;99.90;;;;;;5056362;28;20448;-79
2024/01/15 10:11:36;;;;;;;16.27;11.57;;;1.70;99.90;;;;;;5055645;28;21082;-79
2024/01/15 10:14:06;;;;;;;12.97;9.80;;;1.70;99.90;;;;;;5045998;28;20998;-79
2024/01/15 10:16:33;;;;;;;17.43;10.90;;;1.70;99.90;;;;;;5054004;28;20466;-78
2024/01/15 10:19:00;;;;;;;15.43;11.53;;;1.80;99.90;;;;;;5053083;28;20822;-79
2024/01/15 10:21:27;;;;;;;15.43;11.57;;;1.90;99.90;;;;;;5055722;28;20554;-78
2024/01/15 10:23:55;;;;;;;14.50;10.50;;;2.10;99.90;;;;;;5052331;28;20475;-78
2024/01/15 10:26:27;;;;;;;13.90;11.10;;;2.40;99.90;;;;;;5057540;28;20452;-79
2024/01/15 10:28:56;;;;;;;15.33;10.90;;;2.40;99.90;;;;;;5053306;28;20455;-80
2024/01/15 10:31:23;;;;;;;14.90;11.00;;;2.40;99.90;;;;;;5051609;28;20476;-78
2024/01/15 10:33:50;;;;;;;12.30;10.80;;;2.40;99.90;;;;;;5050559;28;20475;-78
2024/01/15 10:36:18;;;;;;;12.90;11.13;;;2.50;99.90;;;;;;5051577;28;20492;-77
2024/01/15 10:38:45;;;;;;;16.40;11.40;;;2.50;99.90;;;;;;5049758;28;20543;-77
2024/01/15 10:41:12;;;;;;;16.40;11.73;;;2.50;99.90;;;;;;5049987;28;21206;-80
2024/01/15 10:43:41;;;;;;;13.87;11.00;;;2.50;99.90;;;;;;5053369;28;20467;-78
2024/01/15 10:46:08;;;;;;;13.33;10.73;;;2.50;99.90;;;;;;5051662;28;20501;-79
2024/01/15 10:48:35;;;;;;;14.73;9.63;;;2.50;99.90;;;;;;5052144;28;20940;-79
2024/01/15 10:51:10;;;;;;;11.97;9.33;;;2.50;99.90;;;;;;5049690;28;20461;-77
2024/01/15 10:53:39;;;;;;;13.97;9.83;;;2.60;99.90;;;;;;5053330;28;20462;-77
2024/01/15 10:56:10;;;;;;;13.47;10.20;;;2.60;99.90;;;;;;5046147;28;20458;-77
2024/01/15 10:58:40;;;;;;;11.73;9.57;;;2.70;99.90;;;;;;5053250;28;20543;-77
2024/01/15 11:01:14;;;;;;;14.20;10.30;;;2.70;99.90;;;;;;5050147;28;21018;-76
2024/01/15 11:03:43;;;;;;;12.97;9.47;;;2.70;99.90;;;;;;5047254;28;20471;-76
2024/01/15 11:06:19;;;;;;;14.63;10.70;;;2.70;99.90;;;;;;5052371;28;20540;-77
2024/01/15 11:08:52;;;;;;;14.40;11.07;;;2.70;99.90;;;;;;5052241;28;20457;-77
2024/01/15 11:11:27;;;;;;;14.53;9.70;;;2.50;99.90;;;;;;5051671;28;20740;-77
2024/01/15 11:13:59;;;;;;;14.93;10.67;;;2.50;99.90;;;;;;5051740;28;20474;-77
2024/01/15 11:16:54;;;;;;;13.87;9.10;;;2.50;99.90;;;;;;5052072;28;20569;-77
2024/01/15 11:19:21;;;;;;;12.67;8.80;;;2.40;99.90;;;;;;5050633;28;20452;-77
2024/01/15 11:21:48;;;;;;;16.20;10.37;;;2.40;99.90;;;;;;5051263;28;20885;-77
2024/01/15 11:24:36;;;;;;;12.40;8.83;;;2.50;99.90;;;;;;5051629;28;20450;-78
2024/01/15 11:27:03;;;;;;;10.43;8.30;;;2.60;99.90;;;;;;5051827;28;20451;-78
2024/01/15 11:29:31;;;;;;;14.87;9.83;;;2.80;99.90;;;;;;5051910;28;20945;-77
2024/01/15 11:32:01;;;;;;;15.73;10.13;;;2.80;99.90;;;;;;5051149;28;20460;-77
2024/01/15 11:35:01;;;;;;;13.10;9.47;;;2.70;99.90;;;;;;5050939;28;20475;-77
2024/01/15 11:37:29;;;;;;;13.57;9.30;;;2.60;99.90;;;;;;5048627;28;20501;-78
2024/01/15 11:39:57;;;;;;;17.00;8.10;;;2.50;99.90;;;;;;5051828;28;20781;-78
2024/01/15 11:42:24;;;;;;;9.50;7.30;;;2.60;99.90;;;;;;5052129;28;20452;-78
2024/01/15 11:44:51;;;;;;;9.97;7.27;;;2.60;99.90;;;;;;5050758;28;20478;-77
2024/01/15 11:47:49;;;;;;;16.03;8.37;;;2.80;99.90;;;;;;5051367;28;20447;-77
2024/01/15 11:50:16;;;;;;;10.33;7.17;;;2.90;99.90;;;;;;5051646;28;20834;-77
2024/01/15 11:52:51;;;;;;;10.70;6.60;;;3.20;99.90;;;;;;5050042;28;20441;-78
2024/01/15 11:55:23;;;;;;;7.70;6.43;;;3.30;99.90;;;;;;5055324;28;20935;-77
2024/01/15 11:57:52;;;;;;;7.27;6.53;;;3.20;99.90;;;;;;5055838;28;20479;-78
2024/01/15 12:00:19;;;;;;;6.10;5.03;;;3.30;99.90;;;;;;5054440;28;20459;-78
2024/01/15 12:02:49;;;;;;;8.70;5.13;;;3.30;99.90;;;;;;5051355;28;20453;-77
2024/01/15 12:05:17;;;;;;;6.70;6.03;;;3.40;99.90;;;;;;5049949;28;20533;-77
2024/01/15 12:07:44;;;;;;;7.03;5.33;;;3.30;99.90;;;;;;5050188;28;20484;-78
2024/01/15 12:10:12;;;;;;;11.40;7.30;;;3.40;99.90;;;;;;5048460;28;20946;-76
2024/01/15 12:12:59;;;;;;;15.00;7.57;;;3.40;99.90;;;;;;5049521;28;21022;-77
2024/01/15 12:15:27;;;;;;;7.63;5.60;;;3.40;99.90;;;;;;5050448;28;20904;-77
2024/01/15 12:17:57;;;;;;;10.13;5.33;;;3.30;99.90;;;;;;5050473;28;20838;-78
2024/01/15 12:20:24;;;;;;;6.47;5.17;;;3.00;99.90;;;;;;5051467;28;20458;-77
2024/01/15 12:22:51;;;;;;;8.83;6.47;;;2.90;99.90;;;;;;5048101;28;20483;-77
2024/01/15 12:25:18;;;;;;;7.90;6.30;;;2.90;99.90;;;;;;5056872;28;20450;-77
2024/01/15 12:27:45;;;;;;;7.93;6.80;;;2.80;99.90;;;;;;5054292;28;20536;-78
2024/01/15 12:30:13;;;;;;;8.27;6.67;;;3.00;99.90;;;;;;5046577;28;20527;-78
2024/01/15 12:32:42;;;;;;;8.10;6.50;;;3.10;99.90;;;;;;5052286;28;20501;-79
2024/01/15 12:35:11;;;;;;;8.60;6.20;;;3.20;99.90;;;;;;5054936;28;21021;-79
2024/01/15 12:37:38;;;;;;;6.70;5.70;;;3.20;99.90;;;;;;5054781;28;21172;-78
2024/01/15 12:40:07;;;;;;;7.87;6.43;;;3.00;99.90;;;;;;5054598;28;20453;-79
2024/01/15 12:42:34;;;;;;;10.00;7.33;;;2.80;99.90;;;;;;5047120;28;20451;-79
2024/01/15 12:45:01;;;;;;;10.10;6.53;;;2.90;99.90;;;;;;5052229;28;21227;-79
2024/01/15 12:47:28;;;;;;;8.70;5.40;;;2.90;99.90;;;;;;5050320;28;21019;-79